createdAt,value
2022-10-07T00:04:32.076Z,85.33
2022-10-07T00:09:53.936Z,85.66
2022-10-07T00:15:15.830Z,85.71
2022-10-07T00:20:41.257Z,85.33
2022-10-07T00:26:06.198Z,84.52
2022-10-07T00:31:30.795Z,84.98
2022-10-07T00:36:52.646Z,84.64
2022-10-07T00:42:14.433Z,84.05
2022-10-07T00:47:37.161Z,83.18
2022-10-07T00:53:01.906Z,83.29
2022-10-07T00:58:24.744Z,82.62
2022-10-07T01:03:49.469Z,82.90
2022-10-07T01:09:12.832Z,82.34
2022-10-07T01:15:03.550Z,82.05
2022-10-07T01:20:34.742Z,81.43
2022-10-07T01:26:14.835Z,81.41
2022-10-07T01:31:44.198Z,80.95
2022-10-07T01:37:08.402Z,81.53
2022-10-07T01:42:30.581Z,81.71
2022-10-07T01:47:52.394Z,83.34
2022-10-07T01:53:52.981Z,82.15
2022-10-07T01:59:30.079Z,81.85
2022-10-07T02:05:00.964Z,82.06
2022-10-07T02:10:48.087Z,82.17
2022-10-07T02:16:33.881Z,82.10
2022-10-07T02:21:57.567Z,82.29
2022-10-07T02:27:28.033Z,82.19
2022-10-07T02:32:56.742Z,81.46
2022-10-07T02:38:19.013Z,81.35
2022-10-07T02:43:48.680Z,81.93
2022-10-07T02:49:13.977Z,82.43
2022-10-07T02:54:43.160Z,82.48
2022-10-07T03:00:10.756Z,81.85
2022-10-07T03:05:34.721Z,82.65
2022-10-07T03:10:56.390Z,81.73
2022-10-07T03:16:18.218Z,82.71
2022-10-07T03:21:40.516Z,82.23
2022-10-07T03:27:02.196Z,82.27
2022-10-07T03:32:27.064Z,82.32
2022-10-07T03:37:48.804Z,82.88
2022-10-07T03:43:10.625Z,82.88
2022-10-07T03:48:32.497Z,83.46
2022-10-07T03:53:57.343Z,83.89
2022-10-07T03:59:19.049Z,83.76
2022-10-07T04:04:40.750Z,84.20
2022-10-07T04:10:02.538Z,84.29
2022-10-07T04:15:24.258Z,84.76
2022-10-07T04:20:45.954Z,85.13
2022-10-07T04:26:09.804Z,85.33
2022-10-07T04:31:31.539Z,85.67
2022-10-07T04:36:54.260Z,85.17
2022-10-07T04:42:36.242Z,84.90
2022-10-07T04:47:58.091Z,84.45
2022-10-07T04:53:20.829Z,83.75
2022-10-07T04:58:42.508Z,83.91
2022-10-07T05:04:04.406Z,84.08
2022-10-07T05:09:26.099Z,84.46
2022-10-07T05:14:47.915Z,84.78
2022-10-07T05:20:12.309Z,86.23
2022-10-07T05:25:33.994Z,85.63
2022-10-07T05:31:10.754Z,85.02
2022-10-07T05:36:32.578Z,85.69
2022-10-07T05:41:54.289Z,85.62
2022-10-07T05:47:17.901Z,85.86
2022-10-07T05:52:39.921Z,86.18
2022-10-07T05:58:01.658Z,85.72
2022-10-07T06:03:25.889Z,85.67
2022-10-07T06:08:48.140Z,85.12
2022-10-07T06:14:09.874Z,85.75
2022-10-07T06:19:31.578Z,85.06
2022-10-07T06:24:57.450Z,85.26
2022-10-07T06:30:19.236Z,84.62
2022-10-07T06:35:41.005Z,84.89
2022-10-07T06:41:05.187Z,85.05
2022-10-07T06:46:27.004Z,84.86
2022-10-07T06:51:49.772Z,84.68
2022-10-07T06:57:40.443Z,85.72
2022-10-07T07:02:53.107Z,85.58
2022-10-07T07:08:16.681Z,85.24
2022-10-07T07:13:39.498Z,86.16
2022-10-07T07:19:07.157Z,87.11
2022-10-07T07:24:28.864Z,87.63
2022-10-07T07:29:50.679Z,87.64
2022-10-07T07:35:12.436Z,88.10
2022-10-07T07:40:37.460Z,88.67
2022-10-07T07:45:59.323Z,87.64
2022-10-07T07:51:22.134Z,85.19
2022-10-07T07:56:44.665Z,84.79
2022-10-07T08:02:07.263Z,84.92
2022-10-07T08:07:29.079Z,85.97
2022-10-07T08:12:50.777Z,85.96
2022-10-07T08:18:12.440Z,85.66
2022-10-07T08:23:35.655Z,84.48
2022-10-07T08:28:57.904Z,84.09
2022-10-07T08:34:19.585Z,82.78
2022-10-07T08:39:41.330Z,83.23
2022-10-07T08:45:03.833Z,82.03
2022-10-07T08:50:41.196Z,81.36
2022-10-07T08:56:16.489Z,82.44
2022-10-07T09:02:00.174Z,81.32
2022-10-07T09:07:36.130Z,80.17
2022-10-07T09:13:03.543Z,79.85
2022-10-07T09:18:41.202Z,79.78
2022-10-07T09:24:18.807Z,80.84
2022-10-07T09:29:40.611Z,80.71
2022-10-07T09:35:05.950Z,81.25
2022-10-07T09:40:27.622Z,80.72
2022-10-07T09:45:49.269Z,79.84
2022-10-07T09:51:13.897Z,79.64
2022-10-07T09:56:41.772Z,78.30
2022-10-07T10:02:15.443Z,79.48
2022-10-07T10:07:48.376Z,79.02
2022-10-07T10:13:33.116Z,78.43
2022-10-07T10:19:03.394Z,79.51
2022-10-07T10:24:47.698Z,77.67
2022-10-07T10:30:16.179Z,76.83
2022-10-07T10:35:45.969Z,78.50
2022-10-07T10:41:24.586Z,77.55
2022-10-07T10:47:12.875Z,77.37
2022-10-07T10:52:56.190Z,77.65
2022-10-07T10:58:42.853Z,76.24
2022-10-07T11:04:16.608Z,76.38
2022-10-07T11:09:51.952Z,76.67
2022-10-07T11:15:19.444Z,77.04
2022-10-07T11:20:47.965Z,75.68
2022-10-07T11:26:33.796Z,74.20
2022-10-07T11:32:04.828Z,75.63
2022-10-07T11:37:40.014Z,75.95
2022-10-07T11:43:12.524Z,74.95
2022-10-07T11:48:40.805Z,76.42
2022-10-07T11:54:06.411Z,75.62
2022-10-07T11:59:58.543Z,75.10
2022-10-07T12:05:35.192Z,73.03
2022-10-07T12:11:15.532Z,72.92
2022-10-07T12:16:37.201Z,73.19
2022-10-07T12:21:59.383Z,72.21
2022-10-07T12:27:28.366Z,73.08
2022-10-07T12:32:50.402Z,72.49
2022-10-07T12:38:13.074Z,71.62
2022-10-07T12:43:54.590Z,72.18
2022-10-07T12:49:41.603Z,72.51
2022-10-07T12:55:10.971Z,72.41
2022-10-07T13:00:33.371Z,72.98
2022-10-07T13:06:32.625Z,72.29
2022-10-07T13:12:03.638Z,72.74
2022-10-07T13:17:46.182Z,71.95
2022-10-07T13:23:15.930Z,72.06
2022-10-07T13:28:47.121Z,72.71
2022-10-07T13:34:17.966Z,72.53
2022-10-07T13:39:39.720Z,73.03
2022-10-07T13:45:02.762Z,73.32
2022-10-07T13:50:27.645Z,72.04
2022-10-07T13:55:49.419Z,72.74
2022-10-07T14:01:12.482Z,71.96
2022-10-07T14:06:43.239Z,72.65
2022-10-07T14:12:12.127Z,71.90
2022-10-07T14:17:47.004Z,70.96
2022-10-07T14:23:28.214Z,71.63
2022-10-07T14:28:50.059Z,70.19
2022-10-07T14:34:32.719Z,70.78
2022-10-07T14:39:54.402Z,70.56
2022-10-07T14:45:17.955Z,71.32
2022-10-07T14:50:40.112Z,71.75
2022-10-07T14:56:01.854Z,72.64
2022-10-07T15:01:25.456Z,72.65
2022-10-07T15:06:50.751Z,72.59
2022-10-07T15:12:15.823Z,71.99
2022-10-07T15:17:38.408Z,72.35
2022-10-07T15:23:02.547Z,72.66
2022-10-07T15:28:24.301Z,73.20
2022-10-07T15:33:46.127Z,73.53
2022-10-07T15:39:10.014Z,73.54
2022-10-07T15:44:31.781Z,75.37
2022-10-07T15:49:53.581Z,75.09
2022-10-07T15:55:16.257Z,76.17
2022-10-07T16:00:38.005Z,76.63
2022-10-07T16:06:02.172Z,77.17
2022-10-07T16:11:25.676Z,77.81
2022-10-07T16:16:47.368Z,78.19
2022-10-07T16:22:09.502Z,78.42
2022-10-07T16:27:51.167Z,77.63
2022-10-07T16:33:12.875Z,79.41
2022-10-07T16:38:34.557Z,79.38
2022-10-07T16:43:59.599Z,79.88
2022-10-07T16:49:21.352Z,80.65
2022-10-07T16:54:43.167Z,82.18
2022-10-07T17:00:05.578Z,82.13
2022-10-07T17:05:27.347Z,83.24
2022-10-07T17:10:49.081Z,84.09
2022-10-07T17:16:10.958Z,84.32
2022-10-07T17:21:34.868Z,84.33
2022-10-07T17:26:56.771Z,84.88
2022-10-07T17:32:18.443Z,84.54
2022-10-07T17:37:40.150Z,84.81
2022-10-07T17:43:06.802Z,84.12
2022-10-07T17:48:28.966Z,84.04
2022-10-07T17:53:51.095Z,84.53
2022-10-07T17:59:14.228Z,84.94
2022-10-07T18:04:36.363Z,84.85
2022-10-07T18:09:58.173Z,85.03
2022-10-07T18:15:19.858Z,85.68
2022-10-07T18:20:41.536Z,85.76
2022-10-07T18:26:11.777Z,86.38
2022-10-07T18:31:33.600Z,86.91
2022-10-07T18:36:56.924Z,86.80
2022-10-07T18:42:19.184Z,86.92
2022-10-07T18:47:40.901Z,87.34
2022-10-07T18:53:02.653Z,87.23
2022-10-07T18:58:24.340Z,86.71
2022-10-07T19:03:46.342Z,86.42
2022-10-07T19:09:11.282Z,86.44
2022-10-07T19:14:34.565Z,86.49
2022-10-07T19:20:00.411Z,87.10
2022-10-07T19:25:41.023Z,86.98
2022-10-07T19:31:17.996Z,88.19
2022-10-07T19:36:42.225Z,87.61
2022-10-07T19:42:04.357Z,87.81
2022-10-07T19:47:26.084Z,87.77
2022-10-07T19:52:47.754Z,87.40
2022-10-07T19:58:09.459Z,87.11
2022-10-07T20:03:31.188Z,87.31
2022-10-07T20:08:53.946Z,88.06
2022-10-07T20:14:16.187Z,87.91
2022-10-07T20:19:38.184Z,88.15
2022-10-07T20:25:01.062Z,88.10
2022-10-07T20:30:22.878Z,88.05
2022-10-07T20:35:44.612Z,87.95
2022-10-07T20:41:26.635Z,87.56
2022-10-07T20:46:51.711Z,88.87
2022-10-07T20:52:19.797Z,88.00
2022-10-07T20:57:41.727Z,88.09
2022-10-07T21:03:03.466Z,88.96
2022-10-07T21:08:26.060Z,88.74
2022-10-07T21:13:47.734Z,89.03
2022-10-07T21:19:09.557Z,89.67
2022-10-07T21:24:34.379Z,89.62
2022-10-07T21:29:56.273Z,89.66
2022-10-07T21:35:17.922Z,90.36
2022-10-07T21:40:39.669Z,90.48
2022-10-07T21:46:02.408Z,90.39
2022-10-07T21:51:29.613Z,90.18
2022-10-07T21:56:51.418Z,90.41
2022-10-07T22:02:13.746Z,90.36
2022-10-07T22:07:53.786Z,90.77
2022-10-07T22:13:15.504Z,90.83
2022-10-07T22:18:37.226Z,90.96
2022-10-07T22:24:01.214Z,91.00
2022-10-07T22:29:23.104Z,91.06
2022-10-07T22:35:03.086Z,90.98
2022-10-07T22:40:26.138Z,91.36
2022-10-07T22:45:58.523Z,92.03
2022-10-07T22:51:20.821Z,91.88
2022-10-07T22:56:42.635Z,91.96
2022-10-07T23:02:04.317Z,92.23
2022-10-07T23:07:25.969Z,91.73
2022-10-07T23:12:48.117Z,91.43
2022-10-07T23:18:10.143Z,92.48
2022-10-07T23:23:37.151Z,92.53
2022-10-07T23:29:00.469Z,92.85
2022-10-07T23:34:22.424Z,92.84
2022-10-07T23:39:44.170Z,92.23
2022-10-07T23:45:06.343Z,91.97
2022-10-07T23:50:28.062Z,92.04
2022-10-07T23:55:52.036Z,92.31
